createdAt,value
2022-11-12T00:00:16.281Z,84
2022-11-12T00:02:17.544Z,84
2022-11-12T00:04:18.844Z,84
2022-11-12T00:06:20.824Z,85
2022-11-12T00:12:25.230Z,85
2022-11-12T00:14:27.168Z,84
2022-11-12T00:16:28.383Z,85
2022-11-12T00:18:29.765Z,85
2022-11-12T00:22:32.936Z,84
2022-11-12T00:26:35.661Z,85
2022-11-12T00:28:38.293Z,84
2022-11-12T00:32:40.363Z,85
2022-11-12T00:36:43.590Z,85
2022-11-12T00:38:44.965Z,84
2022-11-12T00:40:46.462Z,85
2022-11-12T00:42:47.588Z,84
2022-11-12T00:44:48.862Z,84
2022-11-12T00:46:50.095Z,84
2022-11-12T00:48:51.922Z,84
2022-11-12T00:50:53.490Z,84
2022-11-12T00:52:54.615Z,84
2022-11-12T00:54:56.600Z,84
2022-11-12T00:56:58.295Z,84
2022-11-12T00:58:59.595Z,84
2022-11-12T01:01:01.612Z,84
2022-11-12T01:05:04.845Z,84
2022-11-12T01:07:06.842Z,84
2022-11-12T01:09:08.104Z,84
2022-11-12T01:11:09.662Z,84
2022-11-12T01:15:12.735Z,84
2022-11-12T01:17:13.859Z,84
2022-11-12T01:19:15.158Z,84
2022-11-12T01:21:16.711Z,84
2022-11-12T01:23:17.792Z,84
2022-11-12T01:25:19.372Z,84
2022-11-12T01:27:21.238Z,84
2022-11-12T01:29:23.053Z,84
2022-11-12T01:31:24.272Z,84
2022-11-12T01:33:26.023Z,84
2022-11-12T01:35:27.707Z,84
2022-11-12T01:37:29.438Z,84
2022-11-12T01:39:30.840Z,84
2022-11-12T01:41:32.569Z,84
2022-11-12T01:43:34.200Z,84
2022-11-12T01:47:36.431Z,84
2022-11-12T01:49:38.120Z,84
2022-11-12T01:53:41.836Z,84
2022-11-12T01:57:44.017Z,84
2022-11-12T01:59:45.123Z,84
2022-11-12T02:01:46.154Z,84
2022-11-12T02:03:48.074Z,84
2022-11-12T02:07:51.505Z,84
2022-11-12T02:09:52.547Z,84
2022-11-12T02:11:54.364Z,84
2022-11-12T02:13:56.347Z,84
2022-11-12T02:17:59.023Z,84
2022-11-12T02:20:00.998Z,84
2022-11-12T02:22:02.864Z,84
2022-11-12T02:24:04.339Z,84
2022-11-12T02:26:05.562Z,84
2022-11-12T02:30:09.307Z,84
2022-11-12T02:32:10.674Z,84
2022-11-12T02:34:12.184Z,84
2022-11-12T02:36:13.541Z,84
2022-11-12T02:40:16.148Z,84
2022-11-12T02:42:17.518Z,84
2022-11-12T02:44:19.263Z,84
2022-11-12T02:46:21.141Z,84
2022-11-12T02:50:24.630Z,84
2022-11-12T02:52:26.579Z,84
2022-11-12T02:54:27.692Z,84
2022-11-12T02:56:28.821Z,84
2022-11-12T02:58:30.138Z,84
2022-11-12T03:00:31.581Z,84
2022-11-12T03:03:16.946Z,84
2022-11-12T03:05:18.037Z,84
2022-11-12T03:07:20.027Z,84
2022-11-12T03:13:23.515Z,84
2022-11-12T03:15:25.171Z,84
2022-11-12T03:17:26.860Z,84
2022-11-12T03:19:28.758Z,84
2022-11-12T03:23:31.431Z,84
2022-11-12T03:27:34.595Z,84
2022-11-12T03:29:35.770Z,84
2022-11-12T03:33:38.703Z,84
2022-11-12T03:37:42.604Z,84
2022-11-12T03:39:44.491Z,84
2022-11-12T03:43:48.273Z,84
2022-11-12T03:45:49.954Z,84
2022-11-12T03:49:52.934Z,84
2022-11-12T03:51:54.542Z,84
2022-11-12T03:53:56.145Z,84
2022-11-12T04:00:00.622Z,84
2022-11-12T04:02:01.916Z,84
2022-11-12T04:06:04.963Z,84
2022-11-12T04:10:08.553Z,84
2022-11-12T04:12:10.440Z,84
2022-11-12T04:16:13.236Z,84
2022-11-12T04:20:16.925Z,84
2022-11-12T04:22:18.013Z,84
2022-11-12T04:26:20.473Z,84
2022-11-12T04:28:22.499Z,84
2022-11-12T04:30:24.488Z,84
2022-11-12T04:32:26.190Z,84
2022-11-12T04:38:30.526Z,84
2022-11-12T04:40:32.233Z,84
2022-11-12T04:42:34.233Z,84
2022-11-12T04:48:38.758Z,84
2022-11-12T04:52:41.121Z,84
2022-11-12T04:54:43.122Z,84
2022-11-12T04:58:45.519Z,84
2022-11-12T05:02:48.436Z,84
2022-11-12T05:04:49.953Z,84
2022-11-12T05:08:52.437Z,84
2022-11-12T05:10:53.554Z,84
2022-11-12T05:12:54.684Z,84
2022-11-12T05:14:56.140Z,84
2022-11-12T05:16:57.971Z,84
2022-11-12T05:18:59.849Z,84
2022-11-12T05:21:01.680Z,84
2022-11-12T05:23:07.525Z,84
2022-11-12T05:27:07.022Z,84
2022-11-12T05:31:09.630Z,84
2022-11-12T05:33:11.374Z,84
2022-11-12T05:35:12.614Z,84
2022-11-12T05:37:13.671Z,84
2022-11-12T05:41:20.086Z,84
2022-11-12T05:43:18.315Z,84
2022-11-12T05:45:19.912Z,84
2022-11-12T05:47:21.542Z,84
2022-11-12T05:49:23.344Z,84
2022-11-12T05:51:24.879Z,84
2022-11-12T05:53:26.770Z,84
2022-11-12T05:55:29.331Z,84
2022-11-12T05:57:29.554Z,84
2022-11-12T05:59:31.165Z,84
2022-11-12T06:01:32.578Z,84
2022-11-12T06:03:33.985Z,84
2022-11-12T06:05:35.252Z,84
2022-11-12T06:07:37.035Z,84
2022-11-12T06:09:38.325Z,84
2022-11-12T06:13:41.872Z,84
2022-11-12T06:15:43.743Z,84
2022-11-12T06:17:44.837Z,84
2022-11-12T06:19:46.505Z,84
2022-11-12T06:23:49.620Z,84
2022-11-12T06:25:50.899Z,84
2022-11-12T06:27:52.136Z,84
2022-11-12T06:29:53.431Z,84
2022-11-12T06:31:54.996Z,84
2022-11-12T06:33:56.987Z,84
2022-11-12T06:35:58.906Z,84
2022-11-12T06:38:00.376Z,84
2022-11-12T06:40:02.006Z,84
2022-11-12T06:42:03.355Z,84
2022-11-12T06:44:05.221Z,84
2022-11-12T06:46:06.252Z,84
2022-11-12T06:48:07.918Z,84
2022-11-12T06:50:09.115Z,84
2022-11-12T06:52:15.286Z,84
2022-11-12T06:56:13.925Z,84
2022-11-12T06:58:15.538Z,84
2022-11-12T07:00:17.500Z,84
2022-11-12T07:02:18.555Z,84
2022-11-12T07:06:21.489Z,84
2022-11-12T07:08:23.398Z,84
2022-11-12T07:10:24.703Z,84
2022-11-12T07:12:26.634Z,84
2022-11-12T07:14:28.315Z,84
2022-11-12T07:16:29.506Z,84
2022-11-12T07:18:31.377Z,84
2022-11-12T07:20:33.109Z,84
2022-11-12T07:22:35.003Z,84
2022-11-12T07:24:36.177Z,84
2022-11-12T07:26:37.448Z,84
2022-11-12T07:28:39.219Z,84
2022-11-12T07:30:40.911Z,84
2022-11-12T07:32:44.968Z,84
2022-11-12T07:34:44.019Z,84
2022-11-12T07:38:47.207Z,84
2022-11-12T07:40:48.855Z,84
2022-11-12T07:42:50.646Z,84
2022-11-12T07:44:52.503Z,84
2022-11-12T07:46:53.825Z,84
2022-11-12T07:48:55.684Z,84
2022-11-12T07:50:57.231Z,84
2022-11-12T07:52:58.240Z,84
2022-11-12T07:55:00.113Z,84
2022-11-12T07:57:01.532Z,84
2022-11-12T07:59:02.836Z,84
2022-11-12T08:01:04.754Z,84
2022-11-12T08:03:05.790Z,84
2022-11-12T08:05:13.706Z,84
2022-11-12T08:07:09.370Z,84
2022-11-12T08:09:10.758Z,84
2022-11-12T08:11:12.661Z,85
2022-11-12T08:13:14.175Z,84
2022-11-12T08:15:15.838Z,84
2022-11-12T08:17:17.312Z,84
2022-11-12T08:21:20.201Z,84
2022-11-12T08:23:21.305Z,84
2022-11-12T08:25:22.557Z,84
2022-11-12T08:27:24.523Z,84
2022-11-12T08:31:27.244Z,84
2022-11-12T08:33:28.702Z,84
2022-11-12T08:35:30.158Z,85
2022-11-12T08:37:31.955Z,85
2022-11-12T08:41:34.985Z,85
2022-11-12T08:43:36.287Z,85
2022-11-12T08:45:37.834Z,85
2022-11-12T08:47:39.506Z,85
2022-11-12T08:53:43.953Z,85
2022-11-12T08:55:45.420Z,85
2022-11-12T08:57:47.192Z,85
2022-11-12T08:59:49.080Z,85
2022-11-12T09:03:52.553Z,85
2022-11-12T09:05:54.413Z,85
2022-11-12T09:07:55.834Z,85
2022-11-12T09:09:57.422Z,85
2022-11-12T09:14:00.765Z,85
2022-11-12T09:16:02.526Z,85
2022-11-12T09:20:05.511Z,85
2022-11-12T09:24:07.869Z,85
2022-11-12T09:26:09.526Z,85
2022-11-12T09:28:11.367Z,85
2022-11-12T09:30:12.608Z,85
2022-11-12T09:36:16.682Z,85
2022-11-12T09:38:17.960Z,85
2022-11-12T09:40:19.600Z,85
2022-11-12T09:42:20.932Z,85
2022-11-12T09:46:28.208Z,85
2022-11-12T09:47:08.179Z,85
2022-11-12T09:49:09.342Z,85
2022-11-12T09:51:10.699Z,85
2022-11-12T09:53:12.057Z,85
2022-11-12T09:57:15.678Z,85
2022-11-12T10:01:18.873Z,85
2022-11-12T10:03:19.829Z,85
2022-11-12T10:07:22.684Z,85
2022-11-12T10:11:25.812Z,85
2022-11-12T10:13:27.227Z,85
2022-11-12T10:17:30.070Z,85
2022-11-12T10:19:31.580Z,85
2022-11-12T10:21:32.992Z,85
2022-11-12T10:23:34.465Z,85
2022-11-12T10:29:39.516Z,85
2022-11-12T10:31:41.113Z,85
2022-11-12T10:33:42.533Z,85
2022-11-12T10:35:44.267Z,85
2022-11-12T10:39:46.786Z,85
2022-11-12T10:41:48.114Z,85
2022-11-12T10:43:49.546Z,85
2022-11-12T10:45:50.955Z,85
2022-11-12T10:49:54.265Z,85
2022-11-12T10:51:56.045Z,85
2022-11-12T10:53:57.250Z,85
2022-11-12T10:55:59.371Z,85
2022-11-12T11:00:02.610Z,85
2022-11-12T11:02:03.990Z,85
2022-11-12T11:04:05.775Z,85
2022-11-12T11:06:07.238Z,85
2022-11-12T11:12:11.001Z,85
2022-11-12T11:14:12.646Z,85
2022-11-12T11:16:14.343Z,85
2022-11-12T11:18:15.443Z,85
2022-11-12T11:22:17.926Z,85
2022-11-12T11:24:18.886Z,85
2022-11-12T11:26:20.561Z,85
2022-11-12T11:28:22.323Z,92
2022-11-12T11:32:25.417Z,97
2022-11-12T11:34:26.586Z,97
2022-11-12T11:36:27.797Z,97
2022-11-12T11:38:29.023Z,97
2022-11-12T11:40:29.865Z,97
2022-11-12T11:42:31.387Z,97
2022-11-12T11:44:32.313Z,97
2022-11-12T11:46:33.967Z,97
2022-11-12T11:48:35.209Z,97
2022-11-12T11:52:37.947Z,97
2022-11-12T11:54:39.706Z,97
2022-11-12T11:56:41.540Z,97
2022-11-12T11:58:42.465Z,97
2022-11-12T12:00:43.599Z,97
2022-11-12T12:04:46.527Z,96
2022-11-12T12:06:48.229Z,96
2022-11-12T12:08:49.265Z,97
2022-11-12T12:11:07.267Z,96
2022-11-12T12:14:53.664Z,96
2022-11-12T12:16:55.412Z,96
2022-11-12T12:20:58.324Z,96
2022-11-12T12:25:00.368Z,96
2022-11-12T12:27:01.435Z,96
2022-11-12T12:29:02.473Z,96
2022-11-12T12:31:03.523Z,96
2022-11-12T12:35:06.701Z,96
2022-11-12T12:37:07.735Z,96
2022-11-12T12:41:10.349Z,96
2022-11-12T12:43:11.547Z,96
2022-11-12T12:45:12.405Z,97
2022-11-12T12:47:13.659Z,96
2022-11-12T12:53:17.989Z,96
2022-11-12T12:55:19.777Z,96
2022-11-12T12:57:20.890Z,96
2022-11-12T12:59:22.363Z,101
2022-11-12T13:03:25.550Z,101
2022-11-12T13:05:26.766Z,101
2022-11-12T13:07:28.445Z,101
2022-11-12T13:09:29.426Z,101
2022-11-12T13:13:32.299Z,101
2022-11-12T13:15:33.763Z,99
2022-11-12T13:17:35.316Z,99
2022-11-12T13:19:36.963Z,99
2022-11-12T13:21:38.188Z,99
2022-11-12T13:23:39.257Z,99
2022-11-12T13:25:40.953Z,99
2022-11-12T13:27:42.093Z,99
2022-11-12T13:29:43.510Z,99
2022-11-12T13:31:44.627Z,99
2022-11-12T13:33:45.569Z,99
2022-11-12T13:35:47.380Z,99
2022-11-12T13:37:48.304Z,99
2022-11-12T13:39:49.978Z,99
2022-11-12T13:41:51.324Z,99
2022-11-12T13:45:53.824Z,99
2022-11-12T13:47:55.416Z,77
2022-11-12T13:49:57.294Z,77
2022-11-12T13:51:58.430Z,360
2022-11-12T13:56:00.788Z,360
2022-11-12T13:58:02.457Z,26
2022-11-12T14:00:04.342Z,26
2022-11-12T14:02:05.931Z,26
2022-11-12T14:06:08.327Z,28
2022-11-12T14:08:09.286Z,21
2022-11-12T14:10:11.121Z,21
2022-11-12T14:12:12.432Z,21
2022-11-12T14:18:16.977Z,23
2022-11-12T14:20:18.758Z,23
2022-11-12T14:22:20.164Z,23
2022-11-12T14:24:21.467Z,23
2022-11-12T14:28:24.648Z,23
2022-11-12T14:30:26.296Z,23
2022-11-12T14:32:28.066Z,27
2022-11-12T14:34:29.611Z,27
2022-11-12T14:38:32.498Z,28
2022-11-12T14:40:34.161Z,28
2022-11-12T14:44:37.160Z,28
2022-11-12T14:48:40.369Z,28
2022-11-12T14:50:45.364Z,28
2022-11-12T14:52:44.021Z,28
2022-11-12T14:54:44.995Z,28
2022-11-12T14:58:47.876Z,28
2022-11-12T15:00:48.831Z,28
2022-11-12T15:04:51.454Z,29
2022-11-12T15:06:52.772Z,28
2022-11-12T15:08:54.375Z,29
2022-11-12T15:10:55.786Z,29
2022-11-12T15:14:58.657Z,29
2022-11-12T15:17:00.347Z,29
2022-11-12T15:19:01.985Z,29
2022-11-12T15:21:03.224Z,29
2022-11-12T15:23:04.791Z,29
2022-11-12T15:27:07.671Z,29
2022-11-12T15:29:08.907Z,29
2022-11-12T15:31:10.209Z,29
2022-11-12T15:33:12.045Z,29
2022-11-12T15:37:15.233Z,29
2022-11-12T15:41:18.732Z,29
2022-11-12T15:43:20.606Z,29
2022-11-12T15:47:23.790Z,29
2022-11-12T15:49:25.630Z,29
2022-11-12T15:51:27.438Z,29
2022-11-12T15:53:29.311Z,29
2022-11-12T15:59:41.426Z,29
2022-11-12T16:03:36.521Z,29
2022-11-12T16:05:37.722Z,29
2022-11-12T16:09:40.638Z,29
2022-11-12T16:11:41.931Z,29
2022-11-12T16:13:43.242Z,29
2022-11-12T16:15:44.621Z,29
2022-11-12T16:19:47.829Z,29
2022-11-12T16:21:49.714Z,29
2022-11-12T16:23:51.115Z,29
2022-11-12T16:25:52.511Z,29
2022-11-12T16:27:55.938Z,29
2022-11-12T16:29:56.009Z,29
2022-11-12T16:31:57.685Z,29
2022-11-12T16:34:42.750Z,29
2022-11-12T16:36:44.442Z,29
2022-11-12T16:38:45.519Z,29
2022-11-12T16:40:46.838Z,29
2022-11-12T16:42:48.542Z,29
2022-11-12T16:46:50.862Z,29
2022-11-12T16:48:52.065Z,29
2022-11-12T16:52:55.256Z,29
2022-11-12T16:56:58.141Z,29
2022-11-12T16:58:59.370Z,29
2022-11-12T17:01:00.666Z,29
2022-11-12T17:03:02.053Z,29
2022-11-12T17:05:03.973Z,29
2022-11-12T17:07:05.812Z,29
2022-11-12T17:09:06.861Z,29
2022-11-12T17:11:08.554Z,29
2022-11-12T17:13:09.569Z,29
2022-11-12T17:17:11.970Z,29
2022-11-12T17:19:13.415Z,29
2022-11-12T17:21:14.496Z,29
2022-11-12T17:23:15.611Z,29
2022-11-12T17:25:16.968Z,29
2022-11-12T17:29:20.561Z,29
2022-11-12T17:31:21.898Z,29
2022-11-12T17:33:23.412Z,29
2022-11-12T17:35:25.293Z,29
2022-11-12T17:37:26.931Z,29
2022-11-12T17:39:27.931Z,29
2022-11-12T17:41:29.152Z,29
2022-11-12T17:43:30.597Z,29
2022-11-12T17:45:32.258Z,29
2022-11-12T17:49:35.616Z,29
2022-11-12T17:51:37.261Z,29
2022-11-12T17:53:38.710Z,29
2022-11-12T17:55:40.235Z,29
2022-11-12T17:57:41.650Z,29
2022-11-12T18:01:44.647Z,29
2022-11-12T18:03:46.231Z,22
2022-11-12T18:05:47.861Z,22
2022-11-12T18:07:49.638Z,22
2022-11-12T18:11:51.613Z,22
2022-11-12T18:13:52.758Z,22
2022-11-12T18:15:53.968Z,22
2022-11-12T18:17:55.410Z,22
2022-11-12T18:21:58.162Z,22
2022-11-12T18:23:59.978Z,22
2022-11-12T18:26:01.414Z,22
2022-11-12T18:28:02.807Z,22
2022-11-12T18:32:06.425Z,22
2022-11-12T18:34:08.231Z,22
2022-11-12T18:36:09.254Z,22
2022-11-12T18:38:10.346Z,22
2022-11-12T18:40:11.669Z,22
2022-11-12T18:44:14.406Z,22
2022-11-12T18:48:17.381Z,22
2022-11-12T18:50:18.380Z,22
2022-11-12T18:54:22.122Z,24
2022-11-12T18:56:23.523Z,24
2022-11-12T19:00:26.738Z,24
2022-11-12T19:04:29.427Z,24
2022-11-12T19:06:30.732Z,24
2022-11-12T19:10:33.248Z,24
2022-11-12T19:14:36.117Z,24
2022-11-12T19:16:37.100Z,24
2022-11-12T19:18:38.636Z,24
2022-11-12T19:20:40.074Z,24
2022-11-12T19:22:41.054Z,24
2022-11-12T19:24:42.961Z,24
2022-11-12T19:26:44.639Z,24
2022-11-12T19:28:45.765Z,24
2022-11-12T19:30:47.172Z,24
2022-11-12T19:32:49.032Z,24
2022-11-12T19:34:50.871Z,24
2022-11-12T19:37:05.827Z,24
2022-11-12T19:38:53.451Z,24
2022-11-12T19:42:56.307Z,24
2022-11-12T19:44:57.807Z,24
2022-11-12T19:46:59.326Z,24
2022-11-12T19:49:00.519Z,24
2022-11-12T19:53:03.089Z,24
2022-11-12T19:55:04.680Z,24
2022-11-12T19:59:07.778Z,24
2022-11-12T20:01:09.693Z,24
2022-11-12T20:03:11.483Z,24
2022-11-12T20:05:13.060Z,24
2022-11-12T20:07:14.445Z,24
2022-11-12T20:09:16.034Z,24
2022-11-12T20:11:17.933Z,24
2022-11-12T20:13:19.106Z,24
2022-11-12T20:15:20.840Z,24
2022-11-12T20:17:21.988Z,24
2022-11-12T20:19:23.106Z,24
2022-11-12T20:21:24.569Z,24
2022-11-12T20:25:27.035Z,24
2022-11-12T20:27:28.725Z,24
2022-11-12T20:29:30.263Z,24
2022-11-12T20:31:31.435Z,24
2022-11-12T20:35:33.645Z,24
2022-11-12T20:37:34.880Z,24
2022-11-12T20:39:36.217Z,24
2022-11-12T20:41:37.846Z,24
2022-11-12T20:45:40.738Z,24
2022-11-12T20:47:42.303Z,24
2022-11-12T20:49:44.225Z,24
2022-11-12T20:51:45.902Z,24
2022-11-12T20:53:47.099Z,24
2022-11-12T20:55:49.050Z,24
2022-11-12T20:57:50.065Z,24
2022-11-12T20:59:51.907Z,24
2022-11-12T21:01:53.624Z,24
2022-11-12T21:03:54.805Z,24
2022-11-12T21:07:57.348Z,24
2022-11-12T21:09:59.309Z,24
2022-11-12T21:12:00.417Z,24
2022-11-12T21:14:02.329Z,24
2022-11-12T21:18:05.295Z,24
2022-11-12T21:20:06.529Z,24
2022-11-12T21:24:09.737Z,24
2022-11-12T21:28:13.165Z,24
2022-11-12T21:30:14.881Z,24
2022-11-12T21:32:15.943Z,24
2022-11-12T21:34:17.543Z,24
2022-11-12T21:38:20.148Z,24
2022-11-12T21:40:22.105Z,24
2022-11-12T21:42:23.423Z,24
2022-11-12T21:44:25.120Z,24
2022-11-12T21:46:26.566Z,24
2022-11-12T21:50:29.315Z,24
2022-11-12T21:52:30.809Z,24
2022-11-12T21:54:32.235Z,24
2022-11-12T21:56:33.670Z,24
2022-11-12T22:00:42.223Z,24
2022-11-12T22:02:37.763Z,24
2022-11-12T22:06:40.829Z,24
2022-11-12T22:10:43.969Z,24
2022-11-12T22:13:05.289Z,24
2022-11-12T22:16:48.359Z,25
2022-11-12T22:20:51.815Z,25
2022-11-12T22:22:53.328Z,25
2022-11-12T22:26:58.921Z,25
2022-11-12T22:28:58.303Z,25
2022-11-12T22:30:59.793Z,25
2022-11-12T22:33:01.081Z,25
2022-11-12T22:39:05.309Z,25
2022-11-12T22:41:06.849Z,25
2022-11-12T22:43:08.797Z,25
2022-11-12T22:45:10.746Z,25
2022-11-12T22:49:13.451Z,25
2022-11-12T22:53:16.274Z,25
2022-11-12T22:55:17.678Z,25
2022-11-12T22:59:20.269Z,25
2022-11-12T23:01:21.551Z,25
2022-11-12T23:03:22.474Z,25
2022-11-12T23:05:24.088Z,25
2022-11-12T23:09:26.375Z,25
2022-11-12T23:11:27.609Z,25
2022-11-12T23:13:28.614Z,25
2022-11-12T23:15:30.229Z,25
2022-11-12T23:17:31.697Z,25
2022-11-12T23:18:15.569Z,24
2022-11-12T23:20:17.288Z,25
2022-11-12T23:22:18.960Z,25
2022-11-12T23:26:21.922Z,25
2022-11-12T23:28:23.426Z,25
2022-11-12T23:30:25.006Z,25
2022-11-12T23:32:26.127Z,25
2022-11-12T23:36:29.115Z,25
2022-11-12T23:38:30.799Z,25
2022-11-12T23:40:31.830Z,25
2022-11-12T23:42:33.617Z,25
2022-11-12T23:46:35.929Z,25
2022-11-12T23:48:37.648Z,25
2022-11-12T23:50:38.795Z,25
2022-11-12T23:52:40.550Z,25
2022-11-12T23:58:44.877Z,25
